createdAt,value
2023-01-12T00:01:31.969Z,80.35
2023-01-12T00:03:59.301Z,80.12
2023-01-12T00:06:26.233Z,80.95
2023-01-12T00:08:53.111Z,80.48
2023-01-12T00:11:20.721Z,81.80
2023-01-12T00:13:48.057Z,81.11
2023-01-12T00:16:37.850Z,80.59
2023-01-12T00:19:11.664Z,80.57
2023-01-12T00:21:57.835Z,83.00
2023-01-12T00:24:30.179Z,81.85
2023-01-12T00:26:58.760Z,80.91
2023-01-12T00:29:26.526Z,80.36
2023-01-12T00:31:54.604Z,80.35
2023-01-12T00:34:21.883Z,81.12
2023-01-12T00:36:48.548Z,81.10
2023-01-12T00:39:16.094Z,80.98
2023-01-12T00:42:02.295Z,80.89
2023-01-12T00:44:47.746Z,80.66
2023-01-12T00:47:15.628Z,81.21
2023-01-12T00:49:42.705Z,80.98
2023-01-12T00:52:18.223Z,80.86
2023-01-12T00:54:51.879Z,81.21
2023-01-12T00:57:19.409Z,81.10
2023-01-12T00:59:46.488Z,80.81
2023-01-12T01:02:13.391Z,81.10
2023-01-12T01:04:40.033Z,81.25
2023-01-12T01:07:06.686Z,81.80
2023-01-12T01:09:33.237Z,81.90
2023-01-12T01:11:59.808Z,81.40
2023-01-12T01:14:26.436Z,81.20
2023-01-12T01:16:53.021Z,81.56
2023-01-12T01:19:19.681Z,80.90
2023-01-12T01:21:46.279Z,81.48
2023-01-12T01:24:14.292Z,81.73
2023-01-12T01:26:41.711Z,81.65
2023-01-12T01:29:08.730Z,81.20
2023-01-12T01:31:36.075Z,81.74
2023-01-12T01:34:02.770Z,81.76
2023-01-12T01:36:29.348Z,81.72
2023-01-12T01:38:55.921Z,81.70
2023-01-12T01:41:28.336Z,81.91
2023-01-12T01:44:30.301Z,81.81
2023-01-12T01:47:00.832Z,81.85
2023-01-12T01:49:54.411Z,82.22
2023-01-12T01:52:43.340Z,82.12
2023-01-12T01:55:26.587Z,81.73
2023-01-12T01:58:07.747Z,82.06
2023-01-12T02:00:34.240Z,82.23
2023-01-12T02:03:03.154Z,81.74
2023-01-12T02:05:29.982Z,82.51
2023-01-12T02:08:03.008Z,83.03
2023-01-12T02:10:29.646Z,82.33
2023-01-12T02:13:14.949Z,82.16
2023-01-12T02:16:22.894Z,81.94
2023-01-12T02:18:49.394Z,82.19
2023-01-12T02:21:34.756Z,82.33
2023-01-12T02:24:20.111Z,82.78
2023-01-12T02:27:17.980Z,82.32
2023-01-12T02:30:03.615Z,83.10
2023-01-12T02:32:30.369Z,82.89
2023-01-12T02:35:21.446Z,83.61
2023-01-12T02:38:11.283Z,83.27
2023-01-12T02:41:00.548Z,83.53
2023-01-12T02:43:32.787Z,83.04
2023-01-12T02:46:11.616Z,83.22
2023-01-12T02:48:45.691Z,83.25
2023-01-12T02:51:38.787Z,82.67
2023-01-12T02:54:10.891Z,83.81
2023-01-12T02:56:41.102Z,83.15
2023-01-12T02:59:18.670Z,83.16
2023-01-12T03:01:48.800Z,83.15
2023-01-12T03:04:17.695Z,83.39
2023-01-12T03:07:05.739Z,83.65
2023-01-12T03:09:49.576Z,83.23
2023-01-12T03:12:37.832Z,83.49
2023-01-12T03:15:09.156Z,83.05
2023-01-12T03:17:44.489Z,83.09
2023-01-12T03:20:25.537Z,83.39
2023-01-12T03:22:57.870Z,82.93
2023-01-12T03:25:26.905Z,83.29
2023-01-12T03:27:58.409Z,83.10
2023-01-12T03:30:50.633Z,83.57
2023-01-12T03:33:17.519Z,83.48
2023-01-12T03:35:58.680Z,82.72
2023-01-12T03:38:38.456Z,82.55
2023-01-12T03:41:10.772Z,82.27
2023-01-12T03:43:59.789Z,82.09
2023-01-12T03:46:43.024Z,81.38
2023-01-12T03:49:24.972Z,79.57
2023-01-12T03:51:54.860Z,77.38
2023-01-12T03:54:23.895Z,76.29
2023-01-12T03:56:52.394Z,76.27
2023-01-12T03:59:19.018Z,74.33
2023-01-12T04:01:46.637Z,74.86
2023-01-12T04:04:13.180Z,74.39
2023-01-12T04:06:39.692Z,73.99
2023-01-12T04:09:06.658Z,73.42
2023-01-12T04:11:51.675Z,73.75
2023-01-12T04:14:18.262Z,74.02
2023-01-12T04:16:46.866Z,74.64
2023-01-12T04:19:13.358Z,74.28
2023-01-12T04:21:58.416Z,74.24
2023-01-12T04:24:24.928Z,73.22
2023-01-12T04:26:51.431Z,72.72
2023-01-12T04:29:17.977Z,72.63
2023-01-12T04:31:44.596Z,72.47
2023-01-12T04:34:11.145Z,72.48
2023-01-12T04:36:37.645Z,72.13
2023-01-12T04:39:04.387Z,71.89
2023-01-12T04:41:31.185Z,68.73
2023-01-12T04:43:57.699Z,69.86
2023-01-12T04:46:24.273Z,69.08
2023-01-12T04:48:50.809Z,68.23
2023-01-12T04:51:17.325Z,68.94
2023-01-12T04:53:43.904Z,67.78
2023-01-12T04:56:10.511Z,68.15
2023-01-12T04:58:37.080Z,68.64
2023-01-12T05:01:20.184Z,69.07
2023-01-12T05:03:47.007Z,69.05
2023-01-12T05:06:13.617Z,69.73
2023-01-12T05:08:58.991Z,66.10
2023-01-12T05:11:28.393Z,67.44
2023-01-12T05:13:56.105Z,67.70
2023-01-12T05:16:23.289Z,65.48
2023-01-12T05:18:50.834Z,65.99
2023-01-12T05:21:22.057Z,65.78
2023-01-12T05:23:49.997Z,66.08
2023-01-12T05:26:16.609Z,65.76
2023-01-12T05:28:43.165Z,64.83
2023-01-12T05:31:14.216Z,64.04
2023-01-12T05:33:41.944Z,64.12
2023-01-12T05:36:11.079Z,65.55
2023-01-12T05:38:37.639Z,66.31
2023-01-12T05:41:07.244Z,66.43
2023-01-12T05:43:52.253Z,67.29
2023-01-12T05:46:23.459Z,65.93
2023-01-12T05:48:52.453Z,66.31
2023-01-12T05:51:19.515Z,65.89
2023-01-12T05:53:46.148Z,65.85
2023-01-12T05:56:17.187Z,65.77
2023-01-12T05:58:43.892Z,65.99
2023-01-12T06:01:10.694Z,64.90
2023-01-12T06:03:38.814Z,65.57
2023-01-12T06:06:05.732Z,65.90
2023-01-12T06:08:32.337Z,66.14
2023-01-12T06:11:03.398Z,65.95
2023-01-12T06:13:48.407Z,66.04
2023-01-12T06:16:15.179Z,67.04
2023-01-12T06:18:41.780Z,66.35
2023-01-12T06:21:10.018Z,66.86
2023-01-12T06:23:36.619Z,67.43
2023-01-12T06:26:06.898Z,67.49
2023-01-12T06:28:36.612Z,67.69
2023-01-12T06:31:06.172Z,67.44
2023-01-12T06:33:33.349Z,67.74
2023-01-12T06:36:00.334Z,67.33
2023-01-12T06:38:29.294Z,67.80
2023-01-12T06:40:59.235Z,68.89
2023-01-12T06:43:25.741Z,68.77
2023-01-12T06:45:55.342Z,68.51
2023-01-12T06:48:23.794Z,67.48
2023-01-12T06:50:50.455Z,68.14
2023-01-12T06:53:16.975Z,68.19
2023-01-12T06:55:49.585Z,68.51
2023-01-12T06:58:16.538Z,68.63
2023-01-12T07:00:43.199Z,68.40
2023-01-12T07:03:17.203Z,68.59
2023-01-12T07:05:43.905Z,69.06
2023-01-12T07:08:11.343Z,68.96
2023-01-12T07:10:37.906Z,68.73
2023-01-12T07:13:04.483Z,69.28
2023-01-12T07:15:31.023Z,69.26
2023-01-12T07:17:58.279Z,69.62
2023-01-12T07:20:25.631Z,69.86
2023-01-12T07:22:52.140Z,70.12
2023-01-12T07:25:18.639Z,70.22
2023-01-12T07:27:52.171Z,69.84
2023-01-12T07:30:21.308Z,69.89
2023-01-12T07:32:49.090Z,70.36
2023-01-12T07:35:16.895Z,70.92
2023-01-12T07:37:51.808Z,70.85
2023-01-12T07:40:18.570Z,70.80
2023-01-12T07:42:45.115Z,71.74
2023-01-12T07:45:12.198Z,72.15
2023-01-12T07:47:39.018Z,72.25
2023-01-12T07:50:06.854Z,71.90
2023-01-12T07:52:33.523Z,71.76
2023-01-12T07:55:00.040Z,71.75
2023-01-12T07:57:26.536Z,71.55
2023-01-12T07:59:53.104Z,71.07
2023-01-12T08:02:19.665Z,70.18
2023-01-12T08:04:46.770Z,70.34
2023-01-12T08:07:15.281Z,69.33
2023-01-12T08:09:42.041Z,69.09
2023-01-12T08:12:08.720Z,67.97
2023-01-12T08:14:37.669Z,68.44
2023-01-12T08:17:08.529Z,68.30
2023-01-12T08:19:42.414Z,69.23
2023-01-12T08:22:15.914Z,69.74
2023-01-12T08:24:48.213Z,69.32
2023-01-12T08:27:16.468Z,69.59
2023-01-12T08:29:48.537Z,70.36
2023-01-12T08:32:19.099Z,70.51
2023-01-12T08:34:48.658Z,70.26
2023-01-12T08:37:17.698Z,70.18
2023-01-12T08:39:46.080Z,70.26
2023-01-12T08:42:12.753Z,70.05
2023-01-12T08:44:39.595Z,70.50
2023-01-12T08:47:14.851Z,69.88
2023-01-12T08:49:41.452Z,69.80
2023-01-12T08:52:07.937Z,69.79
2023-01-12T08:54:36.460Z,70.22
2023-01-12T08:57:03.046Z,69.38
2023-01-12T08:59:29.677Z,68.81
2023-01-12T09:01:56.720Z,68.81
2023-01-12T09:04:23.497Z,68.38
2023-01-12T09:06:50.051Z,68.20
2023-01-12T09:09:19.833Z,68.21
2023-01-12T09:11:47.436Z,68.23
2023-01-12T09:14:15.403Z,67.84
2023-01-12T09:16:42.565Z,68.13
2023-01-12T09:19:09.586Z,68.32
2023-01-12T09:21:38.628Z,67.98
2023-01-12T09:24:06.062Z,68.12
2023-01-12T09:26:40.679Z,67.88
2023-01-12T09:29:08.348Z,67.37
2023-01-12T09:31:36.848Z,67.35
2023-01-12T09:34:03.744Z,66.87
2023-01-12T09:36:35.794Z,66.56
2023-01-12T09:39:03.385Z,66.39
2023-01-12T09:41:55.921Z,65.95
2023-01-12T09:44:56.832Z,65.21
2023-01-12T09:47:28.264Z,64.97
2023-01-12T09:50:26.452Z,65.09
2023-01-12T09:52:58.548Z,63.75
2023-01-12T09:55:27.570Z,62.01
2023-01-12T09:58:14.450Z,60.80
2023-01-12T10:00:41.054Z,61.49
2023-01-12T10:03:10.703Z,59.76
2023-01-12T10:05:46.232Z,57.69
2023-01-12T10:08:34.392Z,55.74
2023-01-12T10:11:19.706Z,53.29
2023-01-12T10:13:52.271Z,55.28
2023-01-12T10:16:30.015Z,55.90
2023-01-12T10:19:02.866Z,56.37
2023-01-12T10:21:31.861Z,56.63
2023-01-12T10:23:58.718Z,56.82
2023-01-12T10:26:29.050Z,57.33
2023-01-12T10:28:56.312Z,56.13
2023-01-12T10:31:25.132Z,56.42
2023-01-12T10:34:21.171Z,56.39
2023-01-12T10:36:50.217Z,58.25
2023-01-12T10:39:29.893Z,56.99
2023-01-12T10:42:38.509Z,57.39
2023-01-12T10:45:22.711Z,56.97
2023-01-12T10:47:54.173Z,57.76
2023-01-12T10:50:22.102Z,58.21
2023-01-12T10:52:53.703Z,57.47
2023-01-12T10:55:22.343Z,57.25
2023-01-12T10:57:51.399Z,56.46
2023-01-12T11:00:26.573Z,53.60
2023-01-12T11:02:53.739Z,51.97
2023-01-12T11:05:34.030Z,44.83
2023-01-12T11:08:01.233Z,49.25
2023-01-12T11:10:33.033Z,48.19
2023-01-12T11:13:05.744Z,47.92
2023-01-12T11:15:39.273Z,46.34
2023-01-12T11:18:46.988Z,44.52
2023-01-12T11:21:18.211Z,46.04
2023-01-12T11:24:11.494Z,46.64
2023-01-12T11:27:16.413Z,43.36
2023-01-12T11:29:46.058Z,45.43
2023-01-12T11:32:22.640Z,41.66
2023-01-12T11:35:11.195Z,45.26
2023-01-12T11:37:39.777Z,45.30
2023-01-12T11:40:22.350Z,44.85
2023-01-12T11:43:09.746Z,46.14
2023-01-12T11:46:02.272Z,42.99
2023-01-12T11:48:38.936Z,44.01
2023-01-12T11:51:05.488Z,44.91
2023-01-12T11:53:32.018Z,45.06
2023-01-12T11:56:36.061Z,40.35
2023-01-12T11:59:26.872Z,43.03
2023-01-12T12:02:12.810Z,40.35
2023-01-12T12:04:57.852Z,42.86
2023-01-12T12:07:49.604Z,39.40
2023-01-12T12:10:22.512Z,43.19
2023-01-12T12:13:31.109Z,38.48
2023-01-12T12:16:22.531Z,41.84
2023-01-12T12:19:13.696Z,42.30
2023-01-12T12:21:54.005Z,43.09
2023-01-12T12:24:33.033Z,43.21
2023-01-12T12:27:24.568Z,43.27
2023-01-12T12:30:19.211Z,42.31
2023-01-12T12:33:05.659Z,41.34
2023-01-12T12:35:41.563Z,42.27
2023-01-12T12:38:33.412Z,41.19
2023-01-12T12:41:30.720Z,43.13
2023-01-12T12:44:38.095Z,42.74
2023-01-12T12:47:43.945Z,43.10
2023-01-12T12:50:23.839Z,42.75
2023-01-12T12:53:10.065Z,42.37
2023-01-12T12:55:37.575Z,44.03
2023-01-12T12:58:20.518Z,44.23
2023-01-12T13:00:48.064Z,44.40
2023-01-12T13:03:47.044Z,42.86
2023-01-12T13:06:24.477Z,43.58
2023-01-12T13:09:15.558Z,43.67
2023-01-12T13:12:08.620Z,42.13
2023-01-12T13:14:36.946Z,44.22
2023-01-12T13:17:18.415Z,42.89
2023-01-12T13:19:53.247Z,44.58
2023-01-12T13:22:32.374Z,44.04
2023-01-12T13:25:23.828Z,44.39
2023-01-12T13:28:10.321Z,44.43
2023-01-12T13:30:49.270Z,44.32
2023-01-12T13:33:15.786Z,43.90
2023-01-12T13:35:48.027Z,44.18
2023-01-12T13:38:43.910Z,42.14
2023-01-12T13:41:13.459Z,45.09
2023-01-12T13:43:54.017Z,46.78
2023-01-12T13:46:24.791Z,48.73
2023-01-12T13:48:54.368Z,49.77
2023-01-12T13:51:23.788Z,50.99
2023-01-12T13:54:00.353Z,51.78
2023-01-12T13:56:27.018Z,53.10
2023-01-12T13:59:01.744Z,54.56
2023-01-12T14:01:34.160Z,54.70
2023-01-12T14:04:20.414Z,55.11
2023-01-12T14:07:20.037Z,56.85
2023-01-12T14:09:56.265Z,56.10
2023-01-12T14:12:57.270Z,56.49
2023-01-12T14:15:44.720Z,57.02
2023-01-12T14:18:23.241Z,58.02
2023-01-12T14:20:55.479Z,57.73
2023-01-12T14:23:26.631Z,58.07
2023-01-12T14:26:13.342Z,58.70
2023-01-12T14:28:45.753Z,59.43
2023-01-12T14:31:36.762Z,60.33
2023-01-12T14:34:04.905Z,59.70
2023-01-12T14:36:37.177Z,59.26
2023-01-12T14:39:10.653Z,59.65
2023-01-12T14:41:55.712Z,60.29
2023-01-12T14:44:43.292Z,60.76
2023-01-12T14:47:10.703Z,60.98
2023-01-12T14:49:38.610Z,60.94
2023-01-12T14:52:17.009Z,60.66
2023-01-12T14:54:43.840Z,61.16
2023-01-12T14:57:35.355Z,61.69
2023-01-12T15:00:04.727Z,61.09
2023-01-12T15:02:37.368Z,61.82
2023-01-12T15:05:10.103Z,62.08
2023-01-12T15:07:39.104Z,61.77
2023-01-12T15:10:14.497Z,62.21
2023-01-12T15:12:54.189Z,62.64
2023-01-12T15:15:53.209Z,62.87
2023-01-12T15:18:38.420Z,63.00
2023-01-12T15:21:23.804Z,63.27
2023-01-12T15:24:09.558Z,63.86
2023-01-12T15:26:36.130Z,63.65
2023-01-12T15:29:02.636Z,65.24
2023-01-12T15:31:37.421Z,64.40
2023-01-12T15:34:05.172Z,65.41
2023-01-12T15:36:31.920Z,65.58
2023-01-12T15:38:58.545Z,65.56
2023-01-12T15:41:46.699Z,65.73
2023-01-12T15:44:19.234Z,64.98
2023-01-12T15:46:45.952Z,65.36
2023-01-12T15:49:13.832Z,65.88
2023-01-12T15:51:41.865Z,66.53
2023-01-12T15:54:11.815Z,67.89
2023-01-12T15:56:38.423Z,68.28
2023-01-12T15:59:05.469Z,67.92
2023-01-12T16:01:39.087Z,69.57
2023-01-12T16:04:40.431Z,71.56
2023-01-12T16:06:52.819Z,70.11
2023-01-12T16:09:19.465Z,68.41
2023-01-12T16:11:46.034Z,67.78
2023-01-12T16:14:13.514Z,68.62
2023-01-12T16:16:41.326Z,67.96
2023-01-12T16:19:09.439Z,68.89
2023-01-12T16:21:36.721Z,68.47
2023-01-12T16:24:03.811Z,68.75
2023-01-12T16:26:30.819Z,68.66
2023-01-12T16:28:57.944Z,67.89
2023-01-12T16:31:25.460Z,68.81
2023-01-12T16:33:52.084Z,69.01
2023-01-12T16:36:18.616Z,68.61
2023-01-12T16:38:45.208Z,69.32
2023-01-12T16:41:15.517Z,70.15
2023-01-12T16:43:42.082Z,69.81
2023-01-12T16:46:08.712Z,70.42
2023-01-12T16:48:35.743Z,70.83
2023-01-12T16:51:02.290Z,69.71
2023-01-12T16:53:28.905Z,70.38
2023-01-12T16:55:55.546Z,70.32
2023-01-12T16:58:22.124Z,70.05
2023-01-12T17:00:48.775Z,70.57
2023-01-12T17:03:15.524Z,70.30
2023-01-12T17:05:42.395Z,70.92
2023-01-12T17:08:09.679Z,70.86
2023-01-12T17:10:36.708Z,70.45
2023-01-12T17:13:03.450Z,70.75
2023-01-12T17:15:30.516Z,70.33
2023-01-12T17:17:57.357Z,69.90
2023-01-12T17:20:24.112Z,70.39
2023-01-12T17:22:51.072Z,70.35
2023-01-12T17:25:17.729Z,70.71
2023-01-12T17:27:44.467Z,71.04
2023-01-12T17:30:11.556Z,70.60
2023-01-12T17:32:39.041Z,71.17
2023-01-12T17:35:09.183Z,71.72
2023-01-12T17:37:36.331Z,71.27
2023-01-12T17:40:03.589Z,71.29
2023-01-12T17:42:48.761Z,71.22
2023-01-12T17:45:15.486Z,71.49
2023-01-12T17:47:42.054Z,70.54
2023-01-12T17:50:09.398Z,70.38
2023-01-12T17:52:36.006Z,70.97
2023-01-12T17:55:03.322Z,71.48
2023-01-12T17:57:31.623Z,72.27
2023-01-12T17:59:58.393Z,72.87
2023-01-12T18:02:25.273Z,73.25
2023-01-12T18:04:51.834Z,74.00
2023-01-12T18:07:18.386Z,73.77
2023-01-12T18:09:44.928Z,73.53
2023-01-12T18:12:12.433Z,73.19
2023-01-12T18:14:39.257Z,73.15
2023-01-12T18:17:05.840Z,73.43
2023-01-12T18:19:33.412Z,73.74
2023-01-12T18:22:05.820Z,74.31
2023-01-12T18:24:34.044Z,74.01
2023-01-12T18:27:01.753Z,74.44
2023-01-12T18:29:29.093Z,74.20
2023-01-12T18:31:55.722Z,74.69
2023-01-12T18:34:22.276Z,74.18
2023-01-12T18:36:48.882Z,74.17
2023-01-12T18:39:23.257Z,74.30
2023-01-12T18:42:09.333Z,73.83
2023-01-12T18:44:38.222Z,73.74
2023-01-12T18:47:23.602Z,74.68
2023-01-12T18:49:50.308Z,75.51
2023-01-12T18:52:36.596Z,77.01
2023-01-12T18:55:04.691Z,76.83
2023-01-12T18:57:32.484Z,77.32
2023-01-12T19:00:11.541Z,77.96
2023-01-12T19:02:39.109Z,79.08
2023-01-12T19:05:19.464Z,79.92
2023-01-12T19:07:58.676Z,79.71
2023-01-12T19:10:27.324Z,80.02
2023-01-12T19:13:13.830Z,79.41
2023-01-12T19:15:59.860Z,79.81
2023-01-12T19:18:26.931Z,79.81
2023-01-12T19:21:13.467Z,79.63
2023-01-12T19:23:58.533Z,80.17
2023-01-12T19:26:43.587Z,80.80
2023-01-12T19:29:10.137Z,79.80
2023-01-12T19:31:36.684Z,78.47
2023-01-12T19:34:03.220Z,78.46
2023-01-12T19:36:29.826Z,78.60
2023-01-12T19:38:58.672Z,79.42
2023-01-12T19:41:43.799Z,79.04
2023-01-12T19:44:10.347Z,77.07
2023-01-12T19:46:36.917Z,76.48
2023-01-12T19:49:03.483Z,73.52
2023-01-12T19:51:30.444Z,74.69
2023-01-12T19:53:57.003Z,75.20
2023-01-12T19:56:23.551Z,74.47
2023-01-12T19:58:51.744Z,74.43
2023-01-12T20:01:22.046Z,73.30
2023-01-12T20:03:50.510Z,71.66
2023-01-12T20:06:17.378Z,71.53
2023-01-12T20:08:44.119Z,74.04
2023-01-12T20:11:11.527Z,73.17
2023-01-12T20:13:38.178Z,71.50
2023-01-12T20:16:11.191Z,71.07
2023-01-12T20:18:38.010Z,70.72
2023-01-12T20:21:11.457Z,69.24
2023-01-12T20:23:38.219Z,69.02
2023-01-12T20:26:08.537Z,69.25
2023-01-12T20:28:35.748Z,69.50
2023-01-12T20:31:07.673Z,68.30
2023-01-12T20:33:34.601Z,68.29
2023-01-12T20:36:01.455Z,67.97
2023-01-12T20:38:28.041Z,66.01
2023-01-12T20:40:54.631Z,66.96
2023-01-12T20:43:21.194Z,64.63
2023-01-12T20:45:47.914Z,65.39
2023-01-12T20:48:15.388Z,65.08
2023-01-12T20:50:44.510Z,65.78
2023-01-12T20:53:11.459Z,65.72
2023-01-12T20:55:51.736Z,66.03
2023-01-12T20:58:19.026Z,66.04
2023-01-12T21:00:45.982Z,65.60
2023-01-12T21:03:12.837Z,66.24
2023-01-12T21:05:44.276Z,66.21
2023-01-12T21:08:11.764Z,66.39
2023-01-12T21:10:39.314Z,67.04
2023-01-12T21:13:07.263Z,67.31
2023-01-12T21:15:34.345Z,67.92
2023-01-12T21:18:00.963Z,66.86
2023-01-12T21:20:27.555Z,67.03
2023-01-12T21:22:54.086Z,67.03
2023-01-12T21:25:20.681Z,67.93
2023-01-12T21:27:47.267Z,67.96
2023-01-12T21:30:13.965Z,68.32
2023-01-12T21:32:42.803Z,68.33
2023-01-12T21:35:09.544Z,68.88
2023-01-12T21:37:36.260Z,68.42
2023-01-12T21:40:02.829Z,69.56
2023-01-12T21:42:48.067Z,69.61
2023-01-12T21:45:14.620Z,69.71
2023-01-12T21:47:41.260Z,69.50
2023-01-12T21:50:08.750Z,70.57
2023-01-12T21:52:35.303Z,69.80
2023-01-12T21:55:02.007Z,70.61
2023-01-12T21:57:28.603Z,70.88
2023-01-12T21:59:55.245Z,71.10
2023-01-12T22:02:21.955Z,71.65
2023-01-12T22:04:48.445Z,70.94
2023-01-12T22:07:15.054Z,70.70
2023-01-12T22:09:41.592Z,70.59
2023-01-12T22:12:08.233Z,70.54
2023-01-12T22:14:34.778Z,70.37
2023-01-12T22:17:01.388Z,70.64
2023-01-12T22:19:27.925Z,71.15
2023-01-12T22:21:54.450Z,71.60
2023-01-12T22:24:21.076Z,72.55
2023-01-12T22:26:47.603Z,72.89
2023-01-12T22:29:14.181Z,73.18
2023-01-12T22:31:40.722Z,73.44
2023-01-12T22:34:08.155Z,75.14
2023-01-12T22:36:43.018Z,75.74
2023-01-12T22:39:12.945Z,76.76
2023-01-12T22:41:40.700Z,77.54
2023-01-12T22:44:07.273Z,77.23
2023-01-12T22:46:33.868Z,75.56
2023-01-12T22:49:00.454Z,76.08
2023-01-12T22:51:28.080Z,75.20
2023-01-12T22:53:55.883Z,74.21
2023-01-12T22:56:22.825Z,73.93
2023-01-12T22:58:52.459Z,73.63
2023-01-12T23:01:20.559Z,73.42
2023-01-12T23:03:48.509Z,73.81
2023-01-12T23:06:16.909Z,74.36
2023-01-12T23:08:44.769Z,74.82
2023-01-12T23:11:14.156Z,75.21
2023-01-12T23:13:42.296Z,75.35
2023-01-12T23:16:10.451Z,75.80
2023-01-12T23:18:39.893Z,75.38
2023-01-12T23:21:11.608Z,74.51
2023-01-12T23:23:38.840Z,74.97
2023-01-12T23:26:08.976Z,74.07
2023-01-12T23:28:41.055Z,73.92
2023-01-12T23:31:13.888Z,74.29
2023-01-12T23:33:43.059Z,72.80
2023-01-12T23:36:12.333Z,72.17
2023-01-12T23:38:38.977Z,72.79
2023-01-12T23:41:18.320Z,73.14
2023-01-12T23:43:46.501Z,73.70
2023-01-12T23:46:16.942Z,74.70
2023-01-12T23:48:43.772Z,75.70
2023-01-12T23:51:10.495Z,75.60
2023-01-12T23:53:37.053Z,75.75
2023-01-12T23:56:09.403Z,75.54
2023-01-12T23:58:36.729Z,75.67
